sensor_id;sensor_type;location;lat;lon;timestamp;P1;durP1;ratioP1;P2;durP2;ratioP2
18445;SDS011;9352;50.888;4.466;2024-02-15T00:02:10;16.45;;;4.85;;
18445;SDS011;9352;50.888;4.466;2024-02-15T00:04:37;12.13;;;4.50;;
18445;SDS011;9352;50.888;4.466;2024-02-15T00:07:05;15.35;;;4.85;;
18445;SDS011;9352;50.888;4.466;2024-02-15T00:09:32;23.42;;;5.63;;
18445;SDS011;9352;50.888;4.466;2024-02-15T00:12:00;18.15;;;5.32;;
18445;SDS011;9352;50.888;4.466;2024-02-15T00:14:27;18.05;;;4.82;;
18445;SDS011;9352;50.888;4.466;2024-02-15T00:16:54;20.10;;;5.20;;
18445;SDS011;9352;50.888;4.466;2024-02-15T00:19:21;19.23;;;4.72;;
18445;SDS011;9352;50.888;4.466;2024-02-15T00:21:49;12.85;;;4.07;;
18445;SDS011;9352;50.888;4.466;2024-02-15T00:24:17;19.75;;;4.65;;
18445;SDS011;9352;50.888;4.466;2024-02-15T00:26:44;14.50;;;4.18;;
18445;SDS011;9352;50.888;4.466;2024-02-15T00:29:11;15.85;;;4.10;;
18445;SDS011;9352;50.888;4.466;2024-02-15T00:31:38;17.63;;;4.28;;
18445;SDS011;9352;50.888;4.466;2024-02-15T00:34:05;16.60;;;4.75;;
18445;SDS011;9352;50.888;4.466;2024-02-15T00:36:33;17.80;;;5.32;;
18445;SDS011;9352;50.888;4.466;2024-02-15T00:39:00;19.17;;;3.85;;
18445;SDS011;9352;50.888;4.466;2024-02-15T00:41:31;14.80;;;4.10;;
18445;SDS011;9352;50.888;4.466;2024-02-15T00:43:58;16.20;;;4.13;;
18445;SDS011;9352;50.888;4.466;2024-02-15T00:46:25;16.83;;;3.55;;
18445;SDS011;9352;50.888;4.466;2024-02-15T00:48:54;17.15;;;4.03;;
18445;SDS011;9352;50.888;4.466;2024-02-15T00:51:21;17.30;;;4.10;;
18445;SDS011;9352;50.888;4.466;2024-02-15T00:53:48;11.15;;;3.40;;
18445;SDS011;9352;50.888;4.466;2024-02-15T00:56:15;7.80;;;3.35;;
18445;SDS011;9352;50.888;4.466;2024-02-15T00:58:44;12.15;;;3.42;;
18445;SDS011;9352;50.888;4.466;2024-02-15T01:01:10;17.45;;;4.20;;
18445;SDS011;9352;50.888;4.466;2024-02-15T01:03:38;17.02;;;3.38;;
18445;SDS011;9352;50.888;4.466;2024-02-15T01:06:05;13.77;;;3.30;;
18445;SDS011;9352;50.888;4.466;2024-02-15T01:08:31;10.85;;;3.50;;
18445;SDS011;9352;50.888;4.466;2024-02-15T01:10:59;16.77;;;3.40;;
18445;SDS011;9352;50.888;4.466;2024-02-15T01:13:26;13.38;;;3.25;;
18445;SDS011;9352;50.888;4.466;2024-02-15T01:15:54;10.48;;;3.30;;
18445;SDS011;9352;50.888;4.466;2024-02-15T01:18:21;10.90;;;3.00;;
18445;SDS011;9352;50.888;4.466;2024-02-15T01:20:48;14.10;;;3.13;;
18445;SDS011;9352;50.888;4.466;2024-02-15T01:23:16;13.75;;;2.92;;
18445;SDS011;9352;50.888;4.466;2024-02-15T01:25:42;8.35;;;3.20;;
18445;SDS011;9352;50.888;4.466;2024-02-15T01:28:11;15.43;;;3.40;;
18445;SDS011;9352;50.888;4.466;2024-02-15T01:30:37;15.65;;;3.08;;
18445;SDS011;9352;50.888;4.466;2024-02-15T01:33:06;7.55;;;2.75;;
18445;SDS011;9352;50.888;4.466;2024-02-15T01:35:33;8.35;;;2.80;;
18445;SDS011;9352;50.888;4.466;2024-02-15T01:37:59;17.98;;;3.10;;
18445;SDS011;9352;50.888;4.466;2024-02-15T01:40:25;13.60;;;3.30;;
18445;SDS011;9352;50.888;4.466;2024-02-15T01:42:52;11.38;;;2.40;;
18445;SDS011;9352;50.888;4.466;2024-02-15T01:45:20;12.00;;;2.70;;
18445;SDS011;9352;50.888;4.466;2024-02-15T01:47:47;17.38;;;2.95;;
18445;SDS011;9352;50.888;4.466;2024-02-15T01:50:16;7.80;;;2.28;;
18445;SDS011;9352;50.888;4.466;2024-02-15T01:52:44;13.77;;;2.90;;
18445;SDS011;9352;50.888;4.466;2024-02-15T01:55:14;14.07;;;3.20;;
18445;SDS011;9352;50.888;4.466;2024-02-15T01:57:43;8.18;;;2.50;;
18445;SDS011;9352;50.888;4.466;2024-02-15T02:00:11;10.32;;;2.92;;
18445;SDS011;9352;50.888;4.466;2024-02-15T02:02:41;11.50;;;2.63;;
18445;SDS011;9352;50.888;4.466;2024-02-15T02:05:10;8.45;;;2.58;;
18445;SDS011;9352;50.888;4.466;2024-02-15T02:07:39;9.68;;;2.60;;
18445;SDS011;9352;50.888;4.466;2024-02-15T02:10:07;12.23;;;4.55;;
18445;SDS011;9352;50.888;4.466;2024-02-15T02:12:36;8.98;;;2.50;;
18445;SDS011;9352;50.888;4.466;2024-02-15T02:15:05;8.50;;;2.53;;
18445;SDS011;9352;50.888;4.466;2024-02-15T02:17:32;6.05;;;2.10;;
18445;SDS011;9352;50.888;4.466;2024-02-15T02:20:00;8.30;;;2.17;;
18445;SDS011;9352;50.888;4.466;2024-02-15T02:22:33;10.38;;;2.40;;
18445;SDS011;9352;50.888;4.466;2024-02-15T02:25:03;8.80;;;2.33;;
18445;SDS011;9352;50.888;4.466;2024-02-15T02:27:33;11.43;;;2.70;;
18445;SDS011;9352;50.888;4.466;2024-02-15T02:30:02;9.80;;;2.08;;
18445;SDS011;9352;50.888;4.466;2024-02-15T02:32:32;6.63;;;2.22;;
18445;SDS011;9352;50.888;4.466;2024-02-15T02:34:59;10.25;;;2.85;;
18445;SDS011;9352;50.888;4.466;2024-02-15T02:37:26;5.05;;;2.38;;
18445;SDS011;9352;50.888;4.466;2024-02-15T02:39:53;11.85;;;2.60;;
18445;SDS011;9352;50.888;4.466;2024-02-15T02:42:22;7.35;;;2.55;;
18445;SDS011;9352;50.888;4.466;2024-02-15T02:44:49;9.43;;;2.35;;
18445;SDS011;9352;50.888;4.466;2024-02-15T02:47:16;6.32;;;2.15;;
18445;SDS011;9352;50.888;4.466;2024-02-15T02:49:43;9.13;;;2.40;;
18445;SDS011;9352;50.888;4.466;2024-02-15T02:52:09;18.52;;;3.38;;
18445;SDS011;9352;50.888;4.466;2024-02-15T02:54:36;17.48;;;2.60;;
18445;SDS011;9352;50.888;4.466;2024-02-15T02:57:03;13.30;;;2.92;;
18445;SDS011;9352;50.888;4.466;2024-02-15T02:59:33;12.77;;;2.30;;
18445;SDS011;9352;50.888;4.466;2024-02-15T03:02:01;5.13;;;2.00;;
18445;SDS011;9352;50.888;4.466;2024-02-15T03:04:28;12.18;;;2.20;;
18445;SDS011;9352;50.888;4.466;2024-02-15T03:06:55;6.32;;;2.40;;
18445;SDS011;9352;50.888;4.466;2024-02-15T03:09:22;8.40;;;2.50;;
18445;SDS011;9352;50.888;4.466;2024-02-15T03:11:54;7.25;;;2.85;;
18445;SDS011;9352;50.888;4.466;2024-02-15T03:14:22;8.13;;;2.45;;
18445;SDS011;9352;50.888;4.466;2024-02-15T03:16:51;10.40;;;2.40;;
18445;SDS011;9352;50.888;4.466;2024-02-15T03:19:20;9.23;;;2.35;;
18445;SDS011;9352;50.888;4.466;2024-02-15T03:21:48;5.53;;;2.28;;
18445;SDS011;9352;50.888;4.466;2024-02-15T03:24:15;5.95;;;2.10;;
18445;SDS011;9352;50.888;4.466;2024-02-15T03:26:42;8.27;;;2.33;;
18445;SDS011;9352;50.888;4.466;2024-02-15T03:29:09;9.52;;;2.30;;
18445;SDS011;9352;50.888;4.466;2024-02-15T03:31:36;7.65;;;2.10;;
18445;SDS011;9352;50.888;4.466;2024-02-15T03:34:05;10.38;;;2.20;;
18445;SDS011;9352;50.888;4.466;2024-02-15T03:36:32;7.38;;;2.30;;
18445;SDS011;9352;50.888;4.466;2024-02-15T03:38:59;7.60;;;2.13;;
18445;SDS011;9352;50.888;4.466;2024-02-15T03:41:27;7.78;;;2.42;;
18445;SDS011;9352;50.888;4.466;2024-02-15T03:43:58;6.55;;;2.10;;
18445;SDS011;9352;50.888;4.466;2024-02-15T03:46:25;7.03;;;2.17;;
18445;SDS011;9352;50.888;4.466;2024-02-15T03:48:53;7.65;;;2.25;;
18445;SDS011;9352;50.888;4.466;2024-02-15T03:51:23;6.38;;;2.17;;
18445;SDS011;9352;50.888;4.466;2024-02-15T03:53:50;7.53;;;2.75;;
18445;SDS011;9352;50.888;4.466;2024-02-15T03:56:17;4.88;;;2.13;;
18445;SDS011;9352;50.888;4.466;2024-02-15T03:58:46;8.38;;;2.38;;
18445;SDS011;9352;50.888;4.466;2024-02-15T04:01:13;5.75;;;2.22;;
18445;SDS011;9352;50.888;4.466;2024-02-15T04:03:40;9.60;;;2.30;;
18445;SDS011;9352;50.888;4.466;2024-02-15T04:06:07;7.88;;;2.35;;
18445;SDS011;9352;50.888;4.466;2024-02-15T04:08:37;8.85;;;2.22;;
18445;SDS011;9352;50.888;4.466;2024-02-15T04:11:04;4.45;;;1.95;;
18445;SDS011;9352;50.888;4.466;2024-02-15T04:13:31;9.32;;;2.28;;
18445;SDS011;9352;50.888;4.466;2024-02-15T04:15:58;8.30;;;2.00;;
18445;SDS011;9352;50.888;4.466;2024-02-15T04:18:25;11.43;;;2.40;;
18445;SDS011;9352;50.888;4.466;2024-02-15T04:20:52;8.70;;;2.50;;
18445;SDS011;9352;50.888;4.466;2024-02-15T04:23:18;10.05;;;2.35;;
18445;SDS011;9352;50.888;4.466;2024-02-15T04:25:47;5.57;;;2.30;;
18445;SDS011;9352;50.888;4.466;2024-02-15T04:28:16;7.63;;;2.25;;
18445;SDS011;9352;50.888;4.466;2024-02-15T04:30:43;11.07;;;2.70;;
18445;SDS011;9352;50.888;4.466;2024-02-15T04:33:12;10.27;;;2.63;;
18445;SDS011;9352;50.888;4.466;2024-02-15T04:35:40;8.45;;;2.58;;
18445;SDS011;9352;50.888;4.466;2024-02-15T04:38:07;13.85;;;3.30;;
18445;SDS011;9352;50.888;4.466;2024-02-15T04:40:34;8.13;;;2.60;;
18445;SDS011;9352;50.888;4.466;2024-02-15T04:43:04;7.25;;;2.50;;
18445;SDS011;9352;50.888;4.466;2024-02-15T04:45:31;9.63;;;3.00;;
18445;SDS011;9352;50.888;4.466;2024-02-15T04:47:58;7.15;;;2.45;;
18445;SDS011;9352;50.888;4.466;2024-02-15T04:50:27;10.45;;;2.55;;
18445;SDS011;9352;50.888;4.466;2024-02-15T04:52:54;8.75;;;2.65;;
18445;SDS011;9352;50.888;4.466;2024-02-15T04:55:21;7.43;;;2.72;;
18445;SDS011;9352;50.888;4.466;2024-02-15T04:57:48;16.50;;;2.88;;
18445;SDS011;9352;50.888;4.466;2024-02-15T05:00:21;7.20;;;2.88;;
18445;SDS011;9352;50.888;4.466;2024-02-15T05:02:47;7.60;;;3.42;;
18445;SDS011;9352;50.888;4.466;2024-02-15T05:05:14;13.68;;;3.28;;
18445;SDS011;9352;50.888;4.466;2024-02-15T05:07:41;15.68;;;4.43;;
18445;SDS011;9352;50.888;4.466;2024-02-15T05:10:08;13.35;;;3.30;;
18445;SDS011;9352;50.888;4.466;2024-02-15T05:12:37;16.17;;;2.78;;
18445;SDS011;9352;50.888;4.466;2024-02-15T05:15:05;8.77;;;2.60;;
18445;SDS011;9352;50.888;4.466;2024-02-15T05:17:36;11.95;;;3.10;;
18445;SDS011;9352;50.888;4.466;2024-02-15T05:20:06;10.27;;;2.63;;
18445;SDS011;9352;50.888;4.466;2024-02-15T05:22:36;10.20;;;2.35;;
18445;SDS011;9352;50.888;4.466;2024-02-15T05:25:05;10.20;;;3.03;;
18445;SDS011;9352;50.888;4.466;2024-02-15T05:27:33;11.57;;;2.40;;
18445;SDS011;9352;50.888;4.466;2024-02-15T05:30:01;15.07;;;2.50;;
18445;SDS011;9352;50.888;4.466;2024-02-15T05:32:32;5.20;;;2.25;;
18445;SDS011;9352;50.888;4.466;2024-02-15T05:35:04;10.93;;;2.38;;
18445;SDS011;9352;50.888;4.466;2024-02-15T05:37:33;8.65;;;1.75;;
18445;SDS011;9352;50.888;4.466;2024-02-15T05:40:00;5.07;;;2.30;;
18445;SDS011;9352;50.888;4.466;2024-02-15T05:42:28;7.90;;;2.08;;
18445;SDS011;9352;50.888;4.466;2024-02-15T05:44:54;9.98;;;2.17;;
18445;SDS011;9352;50.888;4.466;2024-02-15T05:47:21;8.45;;;2.17;;
18445;SDS011;9352;50.888;4.466;2024-02-15T05:49:49;8.65;;;2.30;;
18445;SDS011;9352;50.888;4.466;2024-02-15T05:52:17;6.82;;;2.20;;
18445;SDS011;9352;50.888;4.466;2024-02-15T05:54:45;10.15;;;2.58;;
18445;SDS011;9352;50.888;4.466;2024-02-15T05:57:12;11.90;;;2.85;;
18445;SDS011;9352;50.888;4.466;2024-02-15T05:59:39;6.65;;;2.40;;
18445;SDS011;9352;50.888;4.466;2024-02-15T06:02:06;8.35;;;2.42;;
18445;SDS011;9352;50.888;4.466;2024-02-15T06:04:34;11.65;;;2.25;;
18445;SDS011;9352;50.888;4.466;2024-02-15T06:07:01;11.60;;;2.30;;
18445;SDS011;9352;50.888;4.466;2024-02-15T06:09:29;9.27;;;2.38;;
18445;SDS011;9352;50.888;4.466;2024-02-15T06:11:58;7.47;;;2.03;;
18445;SDS011;9352;50.888;4.466;2024-02-15T06:14:25;6.97;;;2.30;;
18445;SDS011;9352;50.888;4.466;2024-02-15T06:16:52;8.77;;;2.20;;
18445;SDS011;9352;50.888;4.466;2024-02-15T06:19:20;6.53;;;2.22;;
18445;SDS011;9352;50.888;4.466;2024-02-15T06:21:47;4.45;;;2.22;;
18445;SDS011;9352;50.888;4.466;2024-02-15T06:24:14;6.97;;;2.30;;
18445;SDS011;9352;50.888;4.466;2024-02-15T06:26:42;5.80;;;1.95;;
18445;SDS011;9352;50.888;4.466;2024-02-15T06:29:09;9.05;;;2.60;;
18445;SDS011;9352;50.888;4.466;2024-02-15T06:31:54;5.18;;;1.88;;
18445;SDS011;9352;50.888;4.466;2024-02-15T06:34:39;9.32;;;2.65;;
18445;SDS011;9352;50.888;4.466;2024-02-15T06:37:35;4.47;;;1.98;;
18445;SDS011;9352;50.888;4.466;2024-02-15T06:40:20;10.90;;;2.13;;
18445;SDS011;9352;50.888;4.466;2024-02-15T06:42:49;9.00;;;2.08;;
18445;SDS011;9352;50.888;4.466;2024-02-15T06:45:16;5.30;;;1.90;;
18445;SDS011;9352;50.888;4.466;2024-02-15T06:47:44;3.20;;;1.75;;
18445;SDS011;9352;50.888;4.466;2024-02-15T06:50:12;3.35;;;2.00;;
18445;SDS011;9352;50.888;4.466;2024-02-15T06:52:39;11.07;;;3.97;;
18445;SDS011;9352;50.888;4.466;2024-02-15T06:55:07;17.85;;;5.43;;
18445;SDS011;9352;50.888;4.466;2024-02-15T06:57:37;11.52;;;4.93;;
18445;SDS011;9352;50.888;4.466;2024-02-15T07:00:09;9.88;;;2.50;;
18445;SDS011;9352;50.888;4.466;2024-02-15T07:02:40;5.75;;;2.17;;
18445;SDS011;9352;50.888;4.466;2024-02-15T07:05:09;8.05;;;2.13;;
18445;SDS011;9352;50.888;4.466;2024-02-15T07:07:36;4.88;;;1.70;;
18445;SDS011;9352;50.888;4.466;2024-02-15T07:10:05;5.97;;;1.80;;
18445;SDS011;9352;50.888;4.466;2024-02-15T07:12:33;3.17;;;1.80;;
18445;SDS011;9352;50.888;4.466;2024-02-15T07:15:00;3.80;;;1.90;;
18445;SDS011;9352;50.888;4.466;2024-02-15T07:17:30;4.20;;;1.67;;
18445;SDS011;9352;50.888;4.466;2024-02-15T07:19:57;8.50;;;1.85;;
18445;SDS011;9352;50.888;4.466;2024-02-15T07:22:24;5.07;;;2.13;;
18445;SDS011;9352;50.888;4.466;2024-02-15T07:24:50;4.70;;;1.85;;
18445;SDS011;9352;50.888;4.466;2024-02-15T07:27:18;7.50;;;2.00;;
18445;SDS011;9352;50.888;4.466;2024-02-15T07:29:48;3.42;;;1.58;;
18445;SDS011;9352;50.888;4.466;2024-02-15T07:32:14;5.65;;;2.15;;
18445;SDS011;9352;50.888;4.466;2024-02-15T07:34:43;4.88;;;1.70;;
18445;SDS011;9352;50.888;4.466;2024-02-15T07:37:12;9.23;;;1.83;;
18445;SDS011;9352;50.888;4.466;2024-02-15T07:39:40;7.30;;;2.30;;
18445;SDS011;9352;50.888;4.466;2024-02-15T07:42:07;7.25;;;1.95;;
18445;SDS011;9352;50.888;4.466;2024-02-15T07:44:35;3.42;;;1.70;;
18445;SDS011;9352;50.888;4.466;2024-02-15T07:47:02;3.33;;;1.70;;
18445;SDS011;9352;50.888;4.466;2024-02-15T07:49:30;4.97;;;1.65;;
18445;SDS011;9352;50.888;4.466;2024-02-15T07:51:59;4.90;;;2.13;;
18445;SDS011;9352;50.888;4.466;2024-02-15T07:54:26;2.45;;;2.03;;
18445;SDS011;9352;50.888;4.466;2024-02-15T07:56:55;7.65;;;1.85;;
18445;SDS011;9352;50.888;4.466;2024-02-15T07:59:23;8.05;;;2.40;;
18445;SDS011;9352;50.888;4.466;2024-02-15T08:01:50;6.78;;;2.30;;
18445;SDS011;9352;50.888;4.466;2024-02-15T08:04:17;5.78;;;2.90;;
18445;SDS011;9352;50.888;4.466;2024-02-15T08:06:45;8.95;;;2.20;;
18445;SDS011;9352;50.888;4.466;2024-02-15T08:09:15;5.88;;;2.20;;
18445;SDS011;9352;50.888;4.466;2024-02-15T08:11:43;5.60;;;2.50;;
18445;SDS011;9352;50.888;4.466;2024-02-15T08:14:10;5.20;;;1.80;;
18445;SDS011;9352;50.888;4.466;2024-02-15T08:16:37;10.05;;;2.13;;
18445;SDS011;9352;50.888;4.466;2024-02-15T08:19:05;6.72;;;1.92;;
18445;SDS011;9352;50.888;4.466;2024-02-15T08:21:32;6.38;;;2.00;;
18445;SDS011;9352;50.888;4.466;2024-02-15T08:24:01;6.13;;;1.70;;
18445;SDS011;9352;50.888;4.466;2024-02-15T08:26:32;7.95;;;2.60;;
18445;SDS011;9352;50.888;4.466;2024-02-15T08:29:00;11.82;;;3.08;;
18445;SDS011;9352;50.888;4.466;2024-02-15T08:31:28;8.88;;;1.60;;
18445;SDS011;9352;50.888;4.466;2024-02-15T08:33:55;5.28;;;2.38;;
18445;SDS011;9352;50.888;4.466;2024-02-15T08:36:22;6.95;;;2.40;;
18445;SDS011;9352;50.888;4.466;2024-02-15T08:38:49;7.75;;;2.47;;
18445;SDS011;9352;50.888;4.466;2024-02-15T08:41:16;7.50;;;2.25;;
18445;SDS011;9352;50.888;4.466;2024-02-15T08:43:47;7.03;;;1.60;;
18445;SDS011;9352;50.888;4.466;2024-02-15T08:46:14;3.83;;;1.70;;
18445;SDS011;9352;50.888;4.466;2024-02-15T08:48:41;15.48;;;2.65;;
18445;SDS011;9352;50.888;4.466;2024-02-15T08:51:08;6.75;;;1.83;;
18445;SDS011;9352;50.888;4.466;2024-02-15T08:53:35;7.07;;;2.28;;
18445;SDS011;9352;50.888;4.466;2024-02-15T08:56:02;18.90;;;3.67;;
18445;SDS011;9352;50.888;4.466;2024-02-15T08:58:30;6.15;;;1.77;;
18445;SDS011;9352;50.888;4.466;2024-02-15T09:00:58;6.00;;;2.28;;
18445;SDS011;9352;50.888;4.466;2024-02-15T09:03:25;4.63;;;1.92;;
18445;SDS011;9352;50.888;4.466;2024-02-15T09:05:52;8.05;;;2.10;;
18445;SDS011;9352;50.888;4.466;2024-02-15T09:08:19;10.32;;;2.22;;
18445;SDS011;9352;50.888;4.466;2024-02-15T09:10:46;6.15;;;2.03;;
18445;SDS011;9352;50.888;4.466;2024-02-15T09:13:13;8.38;;;1.90;;
18445;SDS011;9352;50.888;4.466;2024-02-15T09:15:40;7.03;;;1.80;;
18445;SDS011;9352;50.888;4.466;2024-02-15T09:18:08;7.30;;;1.90;;
18445;SDS011;9352;50.888;4.466;2024-02-15T09:20:35;3.67;;;1.75;;
18445;SDS011;9352;50.888;4.466;2024-02-15T09:23:05;6.43;;;2.28;;
18445;SDS011;9352;50.888;4.466;2024-02-15T09:25:34;4.43;;;2.10;;
18445;SDS011;9352;50.888;4.466;2024-02-15T09:28:04;3.92;;;1.80;;
18445;SDS011;9352;50.888;4.466;2024-02-15T09:30:31;14.18;;;2.28;;
18445;SDS011;9352;50.888;4.466;2024-02-15T09:33:00;3.85;;;1.60;;
18445;SDS011;9352;50.888;4.466;2024-02-15T09:35:31;6.65;;;2.08;;
18445;SDS011;9352;50.888;4.466;2024-02-15T09:37:58;3.33;;;1.70;;
18445;SDS011;9352;50.888;4.466;2024-02-15T09:40:25;3.55;;;1.98;;
18445;SDS011;9352;50.888;4.466;2024-02-15T09:42:54;6.32;;;1.88;;
18445;SDS011;9352;50.888;4.466;2024-02-15T09:45:21;6.97;;;2.78;;
18445;SDS011;9352;50.888;4.466;2024-02-15T09:47:50;7.07;;;3.05;;
18445;SDS011;9352;50.888;4.466;2024-02-15T09:50:18;5.82;;;2.25;;
18445;SDS011;9352;50.888;4.466;2024-02-15T09:52:49;3.97;;;1.80;;
18445;SDS011;9352;50.888;4.466;2024-02-15T09:55:16;7.35;;;2.38;;
18445;SDS011;9352;50.888;4.466;2024-02-15T09:57:44;6.22;;;2.80;;
18445;SDS011;9352;50.888;4.466;2024-02-15T10:00:13;8.02;;;2.22;;
18445;SDS011;9352;50.888;4.466;2024-02-15T10:02:42;9.20;;;2.58;;
18445;SDS011;9352;50.888;4.466;2024-02-15T10:05:09;8.85;;;2.10;;
18445;SDS011;9352;50.888;4.466;2024-02-15T10:07:37;3.10;;;2.20;;
18445;SDS011;9352;50.888;4.466;2024-02-15T10:10:15;6.55;;;2.03;;
18445;SDS011;9352;50.888;4.466;2024-02-15T10:12:44;6.57;;;2.08;;
18445;SDS011;9352;50.888;4.466;2024-02-15T10:15:22;8.38;;;2.20;;
18445;SDS011;9352;50.888;4.466;2024-02-15T10:17:54;3.95;;;1.92;;
18445;SDS011;9352;50.888;4.466;2024-02-15T10:20:21;3.65;;;1.65;;
18445;SDS011;9352;50.888;4.466;2024-02-15T10:22:50;3.13;;;1.58;;
18445;SDS011;9352;50.888;4.466;2024-02-15T10:25:20;2.30;;;1.70;;
18445;SDS011;9352;50.888;4.466;2024-02-15T10:27:47;12.95;;;2.63;;
18445;SDS011;9352;50.888;4.466;2024-02-15T10:30:15;2.67;;;1.60;;
18445;SDS011;9352;50.888;4.466;2024-02-15T10:32:43;6.00;;;1.65;;
18445;SDS011;9352;50.888;4.466;2024-02-15T10:35:10;6.35;;;1.67;;
18445;SDS011;9352;50.888;4.466;2024-02-15T10:37:45;3.38;;;1.73;;
18445;SDS011;9352;50.888;4.466;2024-02-15T10:40:14;5.72;;;1.88;;
18445;SDS011;9352;50.888;4.466;2024-02-15T10:42:47;6.03;;;1.75;;
18445;SDS011;9352;50.888;4.466;2024-02-15T10:45:14;5.00;;;1.90;;
18445;SDS011;9352;50.888;4.466;2024-02-15T10:47:43;5.45;;;1.60;;
18445;SDS011;9352;50.888;4.466;2024-02-15T10:50:12;4.07;;;1.80;;
18445;SDS011;9352;50.888;4.466;2024-02-15T10:52:42;6.65;;;3.30;;
18445;SDS011;9352;50.888;4.466;2024-02-15T10:55:14;6.03;;;2.17;;
18445;SDS011;9352;50.888;4.466;2024-02-15T10:57:52;3.53;;;1.50;;
18445;SDS011;9352;50.888;4.466;2024-02-15T11:00:25;3.58;;;1.70;;
18445;SDS011;9352;50.888;4.466;2024-02-15T11:02:59;3.45;;;1.60;;
18445;SDS011;9352;50.888;4.466;2024-02-15T11:05:31;5.32;;;1.73;;
18445;SDS011;9352;50.888;4.466;2024-02-15T11:08:01;5.97;;;1.42;;
18445;SDS011;9352;50.888;4.466;2024-02-15T11:10:30;3.95;;;1.50;;
18445;SDS011;9352;50.888;4.466;2024-02-15T11:12:59;3.22;;;1.50;;
18445;SDS011;9352;50.888;4.466;2024-02-15T11:15:39;11.73;;;1.60;;
18445;SDS011;9352;50.888;4.466;2024-02-15T11:18:10;5.55;;;1.70;;
18445;SDS011;9352;50.888;4.466;2024-02-15T11:20:47;4.68;;;1.70;;
18445;SDS011;9352;50.888;4.466;2024-02-15T11:23:27;5.85;;;1.50;;
18445;SDS011;9352;50.888;4.466;2024-02-15T11:25:56;4.88;;;1.60;;
18445;SDS011;9352;50.888;4.466;2024-02-15T11:28:40;4.70;;;1.58;;
18445;SDS011;9352;50.888;4.466;2024-02-15T11:37:08;2.13;;;1.60;;
18445;SDS011;9352;50.888;4.466;2024-02-15T11:39:40;2.28;;;1.67;;
18445;SDS011;9352;50.888;4.466;2024-02-15T11:42:27;9.18;;;1.63;;
18445;SDS011;9352;50.888;4.466;2024-02-15T11:45:03;2.88;;;1.42;;
18445;SDS011;9352;50.888;4.466;2024-02-15T11:47:32;9.77;;;1.80;;
18445;SDS011;9352;50.888;4.466;2024-02-15T11:50:05;6.00;;;2.08;;
18445;SDS011;9352;50.888;4.466;2024-02-15T11:52:37;3.65;;;1.90;;
18445;SDS011;9352;50.888;4.466;2024-02-15T11:55:04;2.25;;;1.60;;
18445;SDS011;9352;50.888;4.466;2024-02-15T11:57:35;3.20;;;1.88;;
18445;SDS011;9352;50.888;4.466;2024-02-15T12:00:20;5.88;;;1.80;;
18445;SDS011;9352;50.888;4.466;2024-02-15T12:03:05;7.32;;;2.22;;
18445;SDS011;9352;50.888;4.466;2024-02-15T12:05:50;6.93;;;2.42;;
18445;SDS011;9352;50.888;4.466;2024-02-15T12:08:35;5.13;;;2.15;;
18445;SDS011;9352;50.888;4.466;2024-02-15T12:11:19;4.82;;;2.00;;
18445;SDS011;9352;50.888;4.466;2024-02-15T12:14:03;7.18;;;1.85;;
18445;SDS011;9352;50.888;4.466;2024-02-15T12:16:59;8.27;;;1.95;;
18445;SDS011;9352;50.888;4.466;2024-02-15T12:19:44;6.53;;;2.05;;
18445;SDS011;9352;50.888;4.466;2024-02-15T12:22:13;7.63;;;2.80;;
18445;SDS011;9352;50.888;4.466;2024-02-15T12:24:40;9.20;;;2.60;;
18445;SDS011;9352;50.888;4.466;2024-02-15T12:27:07;11.18;;;2.80;;
18445;SDS011;9352;50.888;4.466;2024-02-15T12:29:35;3.72;;;2.28;;
18445;SDS011;9352;50.888;4.466;2024-02-15T12:32:03;5.18;;;2.10;;
18445;SDS011;9352;50.888;4.466;2024-02-15T12:34:30;4.15;;;1.85;;
18445;SDS011;9352;50.888;4.466;2024-02-15T12:37:06;5.05;;;2.05;;
18445;SDS011;9352;50.888;4.466;2024-02-15T12:39:34;7.57;;;1.77;;
18445;SDS011;9352;50.888;4.466;2024-02-15T12:42:02;2.92;;;1.40;;
18445;SDS011;9352;50.888;4.466;2024-02-15T12:44:29;3.45;;;1.88;;
18445;SDS011;9352;50.888;4.466;2024-02-15T12:46:58;2.38;;;1.92;;
18445;SDS011;9352;50.888;4.466;2024-02-15T12:49:29;4.00;;;1.60;;
18445;SDS011;9352;50.888;4.466;2024-02-15T12:55:12;3.63;;;1.77;;
18445;SDS011;9352;50.888;4.466;2024-02-15T12:57:41;3.90;;;1.83;;
18445;SDS011;9352;50.888;4.466;2024-02-15T13:00:13;2.78;;;1.67;;
18445;SDS011;9352;50.888;4.466;2024-02-15T13:02:44;7.68;;;2.00;;
18445;SDS011;9352;50.888;4.466;2024-02-15T13:05:13;8.65;;;1.67;;
18445;SDS011;9352;50.888;4.466;2024-02-15T13:07:41;7.63;;;1.85;;
18445;SDS011;9352;50.888;4.466;2024-02-15T13:10:08;4.13;;;1.50;;
18445;SDS011;9352;50.888;4.466;2024-02-15T13:12:36;7.40;;;1.70;;
18445;SDS011;9352;50.888;4.466;2024-02-15T13:15:03;3.50;;;1.38;;
18445;SDS011;9352;50.888;4.466;2024-02-15T13:17:32;6.70;;;1.30;;
18445;SDS011;9352;50.888;4.466;2024-02-15T13:19:59;4.13;;;1.35;;
18445;SDS011;9352;50.888;4.466;2024-02-15T13:22:32;2.53;;;1.40;;
18445;SDS011;9352;50.888;4.466;2024-02-15T13:25:01;2.55;;;1.30;;
18445;SDS011;9352;50.888;4.466;2024-02-15T13:27:29;4.95;;;1.35;;
18445;SDS011;9352;50.888;4.466;2024-02-15T13:29:56;1.10;;;1.10;;
18445;SDS011;9352;50.888;4.466;2024-02-15T13:32:23;7.45;;;1.48;;
18445;SDS011;9352;50.888;4.466;2024-02-15T13:34:50;5.18;;;1.23;;
18445;SDS011;9352;50.888;4.466;2024-02-15T13:37:21;5.05;;;1.20;;
18445;SDS011;9352;50.888;4.466;2024-02-15T13:39:50;3.78;;;1.40;;
18445;SDS011;9352;50.888;4.466;2024-02-15T13:42:17;6.63;;;1.33;;
18445;SDS011;9352;50.888;4.466;2024-02-15T13:44:44;1.30;;;1.20;;
18445;SDS011;9352;50.888;4.466;2024-02-15T13:47:12;3.08;;;1.42;;
18445;SDS011;9352;50.888;4.466;2024-02-15T13:49:41;5.53;;;1.50;;
18445;SDS011;9352;50.888;4.466;2024-02-15T13:52:08;3.05;;;1.77;;
18445;SDS011;9352;50.888;4.466;2024-02-15T13:54:36;6.45;;;1.67;;
18445;SDS011;9352;50.888;4.466;2024-02-15T13:57:05;2.67;;;1.35;;
18445;SDS011;9352;50.888;4.466;2024-02-15T13:59:32;3.58;;;1.60;;
18445;SDS011;9352;50.888;4.466;2024-02-15T14:01:59;1.40;;;1.30;;
18445;SDS011;9352;50.888;4.466;2024-02-15T14:04:28;3.33;;;1.50;;
18445;SDS011;9352;50.888;4.466;2024-02-15T14:06:57;2.55;;;1.35;;
18445;SDS011;9352;50.888;4.466;2024-02-15T14:09:25;5.75;;;1.33;;
18445;SDS011;9352;50.888;4.466;2024-02-15T14:11:53;5.60;;;1.67;;
18445;SDS011;9352;50.888;4.466;2024-02-15T14:14:22;2.30;;;1.25;;
18445;SDS011;9352;50.888;4.466;2024-02-15T14:16:49;5.45;;;1.40;;
18445;SDS011;9352;50.888;4.466;2024-02-15T14:19:16;1.50;;;1.40;;
18445;SDS011;9352;50.888;4.466;2024-02-15T14:21:43;7.22;;;1.48;;
18445;SDS011;9352;50.888;4.466;2024-02-15T14:24:10;2.00;;;1.38;;
18445;SDS011;9352;50.888;4.466;2024-02-15T14:26:38;3.53;;;1.42;;
18445;SDS011;9352;50.888;4.466;2024-02-15T14:29:05;2.65;;;1.45;;
18445;SDS011;9352;50.888;4.466;2024-02-15T14:31:36;2.45;;;1.30;;
18445;SDS011;9352;50.888;4.466;2024-02-15T14:34:20;10.88;;;2.10;;
18445;SDS011;9352;50.888;4.466;2024-02-15T14:36:50;4.88;;;1.27;;
18445;SDS011;9352;50.888;4.466;2024-02-15T14:39:16;2.38;;;1.30;;
18445;SDS011;9352;50.888;4.466;2024-02-15T14:41:44;3.47;;;1.20;;
18445;SDS011;9352;50.888;4.466;2024-02-15T14:44:11;4.90;;;1.63;;
18445;SDS011;9352;50.888;4.466;2024-02-15T14:46:40;5.03;;;1.40;;
18445;SDS011;9352;50.888;4.466;2024-02-15T14:49:07;1.80;;;1.00;;
18445;SDS011;9352;50.888;4.466;2024-02-15T14:51:34;6.97;;;1.50;;
18445;SDS011;9352;50.888;4.466;2024-02-15T14:54:04;3.65;;;1.45;;
18445;SDS011;9352;50.888;4.466;2024-02-15T14:56:31;5.25;;;1.60;;
18445;SDS011;9352;50.888;4.466;2024-02-15T14:58:58;2.28;;;1.20;;
18445;SDS011;9352;50.888;4.466;2024-02-15T15:01:26;4.82;;;1.30;;
18445;SDS011;9352;50.888;4.466;2024-02-15T15:03:55;3.30;;;1.30;;
18445;SDS011;9352;50.888;4.466;2024-02-15T15:06:23;1.85;;;1.13;;
18445;SDS011;9352;50.888;4.466;2024-02-15T15:09:08;1.95;;;1.35;;
18445;SDS011;9352;50.888;4.466;2024-02-15T15:11:53;4.93;;;1.30;;
18445;SDS011;9352;50.888;4.466;2024-02-15T15:14:38;1.05;;;1.02;;
18445;SDS011;9352;50.888;4.466;2024-02-15T15:17:06;3.92;;;1.88;;
18445;SDS011;9352;50.888;4.466;2024-02-15T15:19:36;4.13;;;1.70;;